Time;durP1;ratioP1;P1;durP2;ratioP2;P2;SDS_P1;SDS_P2;PMS_P1;PMS_P2;Temp;Humidity;BMP_temperature;BMP_pressure;BME280_temperature;BME280_humidity;BME280_pressure;Samples;Min_cycle;Max_cycle;Signal;HPM_P1;HPM_P2
2021/05/26 00:01:51;;;;;;;;;;;;;;;7.95;100.00;98756.16;5039143;28;19925;-80
2021/05/26 00:04:18;;;;;;;;;;;;;;;7.91;100.00;98760.16;5055505;28;19932;-80
2021/05/26 00:06:46;;;;;;;;;;;;;;;7.86;100.00;98755.84;5088230;28;20548;-79
2021/05/26 00:09:13;;;;;;;;;;;;;;;7.83;100.00;98753.88;5056478;28;19925;-80
2021/05/26 00:11:41;;;;;;;;;;;;;;;7.77;100.00;98752.75;5039010;28;19924;-80
2021/05/26 00:14:08;;;;;;;;;;;;;;;7.72;100.00;98756.00;5056534;28;19952;-80
2021/05/26 00:16:48;;;;;;;;;;;;;;;7.71;100.00;98759.97;5056206;28;20379;-80
2021/05/26 00:19:15;;;;;;;;;;;;;;;7.69;100.00;98750.47;5056110;28;19935;-80
2021/05/26 00:21:43;;;;;;;;;;;;;;;7.65;100.00;98761.63;5056547;28;19933;-80
2021/05/26 00:24:10;;;;;;;;;;;;;;;7.60;100.00;98759.31;5054955;28;19932;-81
2021/05/26 00:26:37;;;;;;;;;;;;;;;7.59;100.00;98760.47;5088614;28;20066;-81
2021/05/26 00:29:04;;;;;;;;;;;;;;;7.59;100.00;98757.69;5088965;28;19929;-81
2021/05/26 00:31:31;;;;;;;;;;;;;;;7.61;100.00;98760.88;5045178;28;19925;-81
2021/05/26 00:33:58;;;;;;;;;;;;;;;7.59;100.00;98762.50;5034945;28;19929;-81
2021/05/26 00:36:25;;;;;;;;;;;;;;;7.56;100.00;98766.88;5051977;28;19970;-81
2021/05/26 00:38:52;;;;;;;;;;;;;;;7.56;100.00;98764.09;5052821;28;19951;-81
2021/05/26 00:41:19;;;;;;;;;;;;;;;7.57;100.00;98768.47;5054993;28;19925;-81
2021/05/26 00:43:47;;;;;;;;;;;;;;;7.56;100.00;98766.88;5088096;28;19925;-81
2021/05/26 00:46:14;;;;;;;;;;;;;;;7.58;100.00;98767.25;5055017;28;20011;-81
2021/05/26 00:48:41;;;;;;;;;;;;;;;7.54;100.00;98777.63;5055936;28;19924;-81
2021/05/26 00:51:08;;;;;;;;;;;;;;;7.54;100.00;98777.63;5088316;28;19932;-81
2021/05/26 00:53:36;;;;;;;;;;;;;;;7.59;100.00;98773.63;5056239;28;19929;-81
2021/05/26 00:56:05;;;;;;;;;;;;;;;7.58;100.00;98772.81;5070871;28;19932;-81
2021/05/26 00:58:33;;;;;;;;;;;;;;;7.60;100.00;98769.63;5054512;28;20446;-81
2021/05/26 01:01:00;;;;;;;;;;;;;;;7.60;100.00;98769.63;5037937;28;19928;-81
2021/05/26 01:03:28;;;;;;;;;;;;;;;7.64;100.00;98779.50;5069567;28;19932;-81
2021/05/26 01:05:56;;;;;;;;;;;;;;;7.64;100.00;98770.38;5053053;28;20027;-81
2021/05/26 01:08:24;;;;;;;;;;;;;;;7.74;100.00;98777.84;5018680;28;19925;-80
2021/05/26 01:10:53;;;;;;;;;;;;;;;7.74;100.00;98777.84;5019355;28;19925;-81
2021/05/26 01:13:26;;;;;;;;;;;;;;;7.69;100.00;98778.28;5054373;28;19932;-81
2021/05/26 01:15:54;;;;;;;;;;;;;;;7.72;100.00;98778.25;5055121;28;19936;-80
2021/05/26 01:18:29;;;;;;;;;;;;;;;7.75;100.00;98777.44;5073819;28;19925;-80
2021/05/26 01:21:16;;;;;;;;;;;;;;;7.78;100.00;98779.38;5054038;28;19952;-80
2021/05/26 01:23:48;;;;;;;;;;;;;;;7.81;100.00;98775.78;5080465;28;19924;-80
2021/05/26 01:26:19;;;;;;;;;;;;;;;7.78;100.00;98782.16;5071490;28;19932;-81
2021/05/26 01:28:48;;;;;;;;;;;;;;;7.75;100.00;98780.22;5054188;28;19925;-81
2021/05/26 01:31:18;;;;;;;;;;;;;;;7.80;100.00;98774.19;5037070;28;19960;-81
2021/05/26 01:34:00;;;;;;;;;;;;;;;7.75;100.00;98771.88;5037679;28;19928;-81
2021/05/26 01:36:32;;;;;;;;;;;;;;;7.80;100.00;98768.63;5053774;28;20025;-80
2021/05/26 01:39:05;;;;;;;;;;;;;;;7.83;100.00;98772.59;5037397;28;19924;-81
2021/05/26 01:41:32;;;;;;;;;;;;;;;7.77;100.00;98769.44;5086859;28;20474;-80
2021/05/26 01:44:04;;;;;;;;;;;;;;;7.69;100.00;98770.75;5053694;28;19932;-81
2021/05/26 01:46:32;;;;;;;;;;;;;;;7.58;100.00;98777.56;5055022;28;19925;-81
2021/05/26 01:48:59;;;;;;;;;;;;;;;7.56;100.00;98769.66;5054686;28;20011;-81
2021/05/26 01:51:27;;;;;;;;;;;;;;;7.59;100.00;98770.84;5053626;28;19924;-81
2021/05/26 01:53:55;;;;;;;;;;;;;;;7.59;100.00;98779.94;5087227;28;19932;-81
2021/05/26 01:56:25;;;;;;;;;;;;;;;7.53;100.00;98778.03;5052920;28;19960;-81
2021/05/26 01:59:07;;;;;;;;;;;;;;;7.49;100.00;98775.28;5054393;28;19970;-81
2021/05/26 02:01:34;;;;;;;;;;;;;;;7.38;100.00;98772.59;5086769;28;19924;-81
2021/05/26 02:04:07;;;;;;;;;;;;;;;7.26;100.00;98773.06;5053318;28;20372;-81
2021/05/26 02:06:34;;;;;;;;;;;;;;;7.13;100.00;98768.41;5086580;28;20020;-81
2021/05/26 02:09:01;;;;;;;;;;;;;;;7.13;100.00;98765.63;5053316;28;19925;-81
2021/05/26 02:14:20;;;;;;;;;;;;;;;7.07;100.00;98770.03;5053478;28;19924;-80
2021/05/26 02:16:50;;;;;;;;;;;;;;;7.09;100.00;98773.19;5039163;28;19960;-81
2021/05/26 02:19:17;;;;;;;;;;;;;;;7.08;100.00;98782.72;5069703;28;19928;-81
2021/05/26 02:21:46;;;;;;;;;;;;;;;7.00;100.00;98775.63;5053017;28;19931;-80
2021/05/26 02:24:13;;;;;;;;;;;;;;;7.01;100.00;98782.78;5053046;28;19924;-80
2021/05/26 02:26:42;;;;;;;;;;;;;;;7.05;100.00;98777.97;5052851;28;19929;-80
2021/05/26 02:29:09;;;;;;;;;;;;;;;7.04;100.00;98787.53;5036398;28;19964;-80
2021/05/26 02:31:40;;;;;;;;;;;;;;;7.04;100.00;98784.75;5086273;28;19925;-80
2021/05/26 02:34:07;;;;;;;;;;;;;;;6.96;100.00;98780.44;5054175;28;19935;-81
2021/05/26 02:36:35;;;;;;;;;;;;;;;6.97;100.00;98790.31;5052883;28;19947;-80
2021/05/26 02:39:03;;;;;;;;;;;;;;;6.97;100.00;98782.00;5034306;28;19989;-81
2021/05/26 02:41:30;;;;;;;;;;;;;;;6.96;100.00;98797.09;5045267;28;19929;-81
2021/05/26 02:43:58;;;;;;;;;;;;;;;6.90;100.00;98790.38;5039434;28;19991;-80
2021/05/26 02:46:25;;;;;;;;;;;;;;;6.82;100.00;98803.50;5086318;28;19948;-80
2021/05/26 02:48:53;;;;;;;;;;;;;;;6.77;100.00;98801.16;5053852;28;19925;-80
2021/05/26 02:51:20;;;;;;;;;;;;;;;6.76;100.00;98804.34;5043980;28;20449;-81
2021/05/26 02:53:51;;;;;;;;;;;;;;;6.76;100.00;98794.03;5064884;28;19986;-80
2021/05/26 02:56:18;;;;;;;;;;;;;;;6.79;100.00;98806.31;5032888;28;20022;-80
2021/05/26 02:59:06;;;;;;;;;;;;;;;6.77;100.00;98803.16;5036647;28;19937;-80
2021/05/26 03:01:52;;;;;;;;;;;;;;;6.77;100.00;98787.28;5053640;28;19982;-80
2021/05/26 03:04:42;;;;;;;;;;;;;;;6.61;100.00;98792.53;5053105;28;19964;-80
2021/05/26 03:07:13;;;;;;;;;;;;;;;6.57;100.00;98791.72;5053953;28;19925;-80
2021/05/26 03:09:43;;;;;;;;;;;;;;;6.50;100.00;98779.84;5056601;28;19960;-80
2021/05/26 03:12:12;;;;;;;;;;;;;;;6.53;100.00;98790.97;5044681;28;20402;-80
2021/05/26 03:14:46;;;;;;;;;;;;;;;6.43;100.00;98779.91;5057781;28;19925;-81
2021/05/26 03:17:14;;;;;;;;;;;;;;;6.32;100.00;98774.41;5057994;28;20336;-80
2021/05/26 03:19:41;;;;;;;;;;;;;;;6.23;100.00;98781.56;5073289;28;20338;-80
2021/05/26 03:22:27;;;;;;;;;;;;;;;6.13;100.00;98782.38;5056694;28;20334;-80
2021/05/26 03:25:13;;;;;;;;;;;;;;;6.11;100.00;98784.75;5057639;28;20415;-80
2021/05/26 03:27:41;;;;;;;;;;;;;;;6.08;100.00;98785.56;5089699;28;20289;-80
2021/05/26 03:30:13;;;;;;;;;;;;;;;5.99;100.00;98782.41;5056604;28;20399;-80
2021/05/26 03:32:40;;;;;;;;;;;;;;;5.95;100.00;98784.41;5036518;28;20398;-80
2021/05/26 03:35:09;;;;;;;;;;;;;;;5.85;100.00;98782.44;5021510;28;19933;-80
2021/05/26 03:37:36;;;;;;;;;;;;;;;5.80;100.00;98774.50;5057501;28;19932;-80
2021/05/26 03:40:07;;;;;;;;;;;;;;;5.80;100.00;98772.50;5055999;28;20376;-80
2021/05/26 03:42:35;;;;;;;;;;;;;;;5.74;100.00;98774.09;5056120;28;19925;-81
2021/05/26 03:45:04;;;;;;;;;;;;;;;5.70;100.00;98775.31;5056082;28;19925;-81
2021/05/26 03:47:31;;;;;;;;;;;;;;;5.69;100.00;98769.00;5056523;28;19925;-81
2021/05/26 03:50:01;;;;;;;;;;;;;;;5.72;100.00;98767.38;5089834;28;19990;-81
2021/05/26 03:52:29;;;;;;;;;;;;;;;5.77;100.00;98770.53;5056083;28;20370;-80
2021/05/26 03:54:57;;;;;;;;;;;;;;;5.76;100.00;98762.63;5055605;28;19925;-80
2021/05/26 03:57:24;;;;;;;;;;;;;;;5.74;100.00;98763.03;5055990;28;19932;-80
2021/05/26 03:59:51;;;;;;;;;;;;;;;5.67;100.00;98765.00;5056086;28;19928;-80
2021/05/26 04:02:20;;;;;;;;;;;;;;;5.66;100.00;98763.44;5055803;28;20363;-80
2021/05/26 04:04:47;;;;;;;;;;;;;;;5.65;100.00;98756.31;5057029;28;20015;-80
2021/05/26 04:07:17;;;;;;;;;;;;;;;5.60;100.00;98749.19;5044431;28;20402;-80
2021/05/26 04:09:45;;;;;;;;;;;;;;;5.44;100.00;98755.16;5040653;28;19932;-80
2021/05/26 04:12:12;;;;;;;;;;;;;;;5.36;100.00;98744.47;5055574;28;19925;-80
2021/05/26 04:14:49;;;;;;;;;;;;;;;5.20;100.00;98750.41;5035821;28;19928;-80
2021/05/26 04:17:36;;;;;;;;;;;;;;;5.24;100.00;98759.50;5051416;28;19960;-80
2021/05/26 04:20:12;;;;;;;;;;;;;;;5.08;100.00;98750.81;5088758;28;20490;-81
2021/05/26 04:22:40;;;;;;;;;;;;;;;5.07;100.00;98757.50;5088873;28;19925;-80
2021/05/26 04:25:08;;;;;;;;;;;;;;;5.08;100.00;98756.34;5041335;28;19932;-80
2021/05/26 04:27:37;;;;;;;;;;;;;;;4.99;100.00;98753.16;5055562;28;19924;-80
2021/05/26 04:30:05;;;;;;;;;;;;;;;5.02;100.00;98757.91;5054831;28;19925;-80
2021/05/26 04:32:38;;;;;;;;;;;;;;;5.13;100.00;98752.38;5082023;28;19935;-80
2021/05/26 04:35:06;;;;;;;;;;;;;;;5.16;100.00;98746.06;5056492;28;19967;-80
2021/05/26 04:37:34;;;;;;;;;;;;;;;5.16;100.00;98757.94;5055244;28;19925;-80
2021/05/26 04:40:01;;;;;;;;;;;;;;;5.15;100.00;98745.25;5056420;28;19925;-80
2021/05/26 04:42:28;;;;;;;;;;;;;;;4.96;100.00;98745.66;5056226;28;20425;-80
2021/05/26 04:44:56;;;;;;;;;;;;;;;5.04;100.00;98747.22;5088309;28;19925;-80
2021/05/26 04:47:23;;;;;;;;;;;;;;;4.90;100.00;98749.19;5055008;28;19924;-80
2021/05/26 04:49:52;;;;;;;;;;;;;;;4.78;100.00;98753.13;5054808;28;19932;-80
2021/05/26 04:52:19;;;;;;;;;;;;;;;4.89;100.00;98753.94;5055858;28;19929;-80
2021/05/26 04:54:47;;;;;;;;;;;;;;;5.15;100.00;98761.88;5055950;28;20268;-80
2021/05/26 04:57:15;;;;;;;;;;;;;;;5.26;100.00;98762.69;5071349;28;20019;-80
2021/05/26 04:59:42;;;;;;;;;;;;;;;5.08;100.00;98744.47;5054883;28;19925;-80
2021/05/26 05:02:09;;;;;;;;;;;;;;;5.05;100.00;98745.25;5055740;28;20408;-80
2021/05/26 05:04:37;;;;;;;;;;;;;;;5.15;100.00;98755.56;5055938;28;19955;-80
2021/05/26 05:07:04;;;;;;;;;;;;;;;5.22;100.00;98761.91;5054966;28;19932;-80
2021/05/26 05:09:31;;;;;;;;;;;;;;;5.20;100.00;98755.94;5071020;28;19931;-80
2021/05/26 05:11:58;;;;;;;;;;;;;;;5.26;100.00;98762.69;5056030;28;19932;-80
2021/05/26 05:14:25;;;;;;;;;;;;;;;5.51;100.00;98763.44;5054711;28;19925;-80
2021/05/26 05:16:52;;;;;;;;;;;;;;;5.31;100.00;98759.53;5054003;28;19928;-80
2021/05/26 05:19:19;;;;;;;;;;;;;;;5.32;100.00;98760.28;5054270;28;19970;-80
2021/05/26 05:21:47;;;;;;;;;;;;;;;5.50;100.00;98767.41;5055313;28;19924;-80
2021/05/26 05:24:14;;;;;;;;;;;;;;;5.57;100.00;98767.41;5054283;28;19932;-80
2021/05/26 05:26:41;;;;;;;;;;;;;;;5.79;100.00;98767.38;5071052;28;19933;-80
2021/05/26 05:29:09;;;;;;;;;;;;;;;6.02;100.00;98770.53;5054168;28;20024;-80
2021/05/26 05:31:36;;;;;;;;;;;;;;;6.39;100.00;98765.25;5054458;28;19992;-79
2021/05/26 05:34:03;;;;;;;;;;;;;;;6.57;100.00;98763.97;5055232;28;19925;-80
2021/05/26 05:36:30;;;;;;;;;;;;;;;6.60;100.00;98754.06;5087230;28;20388;-79
2021/05/26 05:38:57;;;;;;;;;;;;;;;6.71;100.00;98763.13;5055079;28;19940;-79
2021/05/26 05:41:24;;;;;;;;;;;;;;;6.80;100.00;98755.13;5054782;28;19931;-79
2021/05/26 05:43:51;;;;;;;;;;;;;;;6.83;100.00;98757.09;5054431;28;19960;-80
2021/05/26 05:46:18;;;;;;;;;;;;;;;6.94;100.00;98763.38;5041591;28;19929;-79
2021/05/26 05:48:46;;;;;;;;;;;;;;;6.94;100.00;98749.47;5087353;28;19924;-78
2021/05/26 05:51:13;;;;;;;;;;;;;;;6.95;100.00;98757.41;5050532;28;19925;-78
2021/05/26 05:53:40;;;;;;;;;;;;;;;6.92;100.00;98749.88;5078431;28;20008;-79
2021/05/26 05:56:07;;;;;;;;;;;;;;;6.95;100.00;98756.63;5050081;28;20015;-79
2021/05/26 05:58:34;;;;;;;;;;;;;;;7.00;100.00;98764.50;5066168;28;20014;-80
2021/05/26 06:01:02;;;;;;;;;;;;;;;7.05;100.00;98755.75;5083648;28;19933;-79
2021/05/26 06:03:29;;;;;;;;;;;;;;;7.08;100.00;98761.31;5044632;28;20006;-80
2021/05/26 06:05:56;;;;;;;;;;;;;;;7.10;100.00;98752.56;5065867;28;19925;-80
2021/05/26 06:08:24;;;;;;;;;;;;;;;7.16;100.00;98748.16;5041971;28;19933;-81
2021/05/26 06:10:51;;;;;;;;;;;;;;;7.27;100.00;98757.97;5038323;28;19925;-81
2021/05/26 06:13:18;;;;;;;;;;;;;;;7.36;100.00;98743.63;5066830;28;19932;-80
2021/05/26 06:15:46;;;;;;;;;;;;;;;7.41;100.00;98743.16;5049972;28;19928;-80
2021/05/26 06:18:13;;;;;;;;;;;;;;;7.43;100.00;98748.31;5089533;28;19956;-80
2021/05/26 06:20:42;;;;;;;;;;;;;;;7.42;100.00;98750.31;5048396;28;20716;-79
2021/05/26 06:23:10;;;;;;;;;;;;;;;7.44;100.00;98747.91;5066287;28;19928;-80
2021/05/26 06:25:38;;;;;;;;;;;;;;;7.43;100.00;98749.13;5032271;28;19925;-80
2021/05/26 06:28:05;;;;;;;;;;;;;;;7.54;100.00;98749.81;5079371;28;20241;-80
2021/05/26 06:30:32;;;;;;;;;;;;;;;7.61;100.00;98744.19;5040263;28;19925;-81
2021/05/26 06:33:00;;;;;;;;;;;;;;;7.61;100.00;98749.75;5046985;28;19959;-81
2021/05/26 06:35:27;;;;;;;;;;;;;;;7.58;100.00;98755.34;5033177;28;19924;-81
2021/05/26 06:37:54;;;;;;;;;;;;;;;7.52;100.00;98755.00;5049684;28;19995;-81
2021/05/26 06:40:21;;;;;;;;;;;;;;;7.52;100.00;98755.00;5050947;28;19925;-80
2021/05/26 06:42:48;;;;;;;;;;;;;;;7.48;100.00;98751.47;5053831;28;19998;-81
2021/05/26 06:45:16;;;;;;;;;;;;;;;7.51;100.00;98750.66;5053926;28;20010;-80
2021/05/26 06:47:43;;;;;;;;;;;;;;;7.59;100.00;98749.34;5053933;28;19970;-80
2021/05/26 06:50:11;;;;;;;;;;;;;;;7.54;100.00;98754.59;5052844;28;19925;-80
2021/05/26 06:52:39;;;;;;;;;;;;;;;7.61;100.00;98755.31;5038886;28;20384;-80
2021/05/26 06:55:06;;;;;;;;;;;;;;;7.59;100.00;98757.69;5053194;28;19925;-80
2021/05/26 06:57:34;;;;;;;;;;;;;;;7.69;100.00;98747.69;5053559;28;19924;-81
2021/05/26 07:00:03;;;;;;;;;;;;;;;7.75;100.00;98749.63;5035849;28;19971;-81
2021/05/26 07:02:30;;;;;;;;;;;;;;;7.71;100.00;98759.97;5053038;28;19932;-80
2021/05/26 07:04:57;;;;;;;;;;;;;;;7.61;100.00;98748.94;5053369;28;19932;-82
2021/05/26 07:07:25;;;;;;;;;;;;;;;7.62;100.00;98756.88;5054063;28;19931;-81
2021/05/26 07:09:52;;;;;;;;;;;;;;;7.62;100.00;98753.31;5053516;28;19936;-82
2021/05/26 07:12:21;;;;;;;;;;;;;;;7.60;100.00;98759.31;5069383;28;20019;-82
2021/05/26 07:14:51;;;;;;;;;;;;;;;7.61;100.00;98766.44;5052279;28;19971;-82
2021/05/26 07:17:20;;;;;;;;;;;;;;;7.68;100.00;98766.34;5052825;28;20296;-82
2021/05/26 07:19:47;;;;;;;;;;;;;;;7.72;100.00;98772.69;5051796;28;19929;-82
2021/05/26 07:22:14;;;;;;;;;;;;;;;7.85;100.00;98776.53;5052217;28;19925;-82
2021/05/26 07:24:42;;;;;;;;;;;;;;;8.01;100.00;98767.63;5052063;28;19931;-83
2021/05/26 07:27:09;;;;;;;;;;;;;;;8.16;100.00;98761.50;5069414;28;20383;-83
2021/05/26 07:29:37;;;;;;;;;;;;;;;8.33;100.00;98760.53;5036192;28;19932;-82
2021/05/26 07:32:04;;;;;;;;;;;;;;;8.54;100.00;98765.84;5068590;28;19925;-83
2021/05/26 07:34:32;;;;;;;;;;;;;;;8.83;100.00;98757.91;5035536;28;19928;-82
2021/05/26 07:36:59;;;;;;;;;;;;;;;8.86;100.00;98757.84;5035126;28;19999;-83
2021/05/26 07:39:34;;;;;;;;;;;;;;;9.04;100.00;98758.38;5051768;28;20273;-83
2021/05/26 07:42:04;;;;;;;;;;;;;;;9.12;100.00;98759.06;5068202;28;19925;-81
2021/05/26 07:44:32;;;;;;;;;;;;;;;9.18;100.00;98762.94;5052399;28;19932;-81
2021/05/26 07:46:59;;;;;;;;;;;;;;;9.38;100.00;98760.25;5052594;28;20318;-81
2021/05/26 07:49:26;;;;;;;;;;;;;;;9.57;100.00;98756.75;5053191;28;19925;-81
2021/05/26 07:51:55;;;;;;;;;;;;;;;9.55;100.00;98759.19;5052045;28;20356;-81
2021/05/26 07:54:23;;;;;;;;;;;;;;;9.26;100.00;98758.06;5053280;28;19929;-80
2021/05/26 07:56:50;;;;;;;;;;;;;;;8.78;100.00;98761.16;5057175;28;19925;-81
2021/05/26 07:59:18;;;;;;;;;;;;;;;8.51;100.00;98763.13;5055674;28;19925;-80
2021/05/26 08:01:45;;;;;;;;;;;;;;;8.65;100.00;98769.28;5072337;28;20410;-82
2021/05/26 08:04:12;;;;;;;;;;;;;;;8.71;100.00;98767.59;5080656;28;20382;-81
2021/05/26 08:06:39;;;;;;;;;;;;;;;8.65;100.00;98768.47;5053239;28;20372;-80
2021/05/26 08:09:06;;;;;;;;;;;;;;;8.77;100.00;98765.94;5052732;28;19924;-81
2021/05/26 08:11:33;;;;;;;;;;;;;;;8.99;100.00;98778.38;5047197;28;19932;-82
2021/05/26 08:14:00;;;;;;;;;;;;;;;8.74;100.00;98766.78;5053312;28;20379;-81
2021/05/26 08:16:28;;;;;;;;;;;;;;;8.80;100.00;98765.09;5051855;28;20386;-75
2021/05/26 08:18:54;;;;;;;;;;;;;;;8.84;100.00;98778.97;5051716;28;19929;-77
2021/05/26 08:21:21;;;;;;;;;;;;;;;8.84;100.00;98777.00;5050722;28;19932;-77
2021/05/26 08:23:48;;;;;;;;;;;;;;;8.88;100.00;98777.72;5052350;28;19944;-77
2021/05/26 08:26:22;;;;;;;;;;;;;;;8.94;100.00;98786.41;5051998;28;19964;-78
2021/05/26 08:28:52;;;;;;;;;;;;;;;8.92;100.00;98778.47;5051086;28;20556;-80
2021/05/26 08:31:20;;;;;;;;;;;;;;;8.99;100.00;98789.53;5051171;28;19964;-80
2021/05/26 08:33:47;;;;;;;;;;;;;;;8.98;100.00;98798.31;5051893;28;19932;-82
2021/05/26 08:36:14;;;;;;;;;;;;;;;8.87;100.00;98786.50;5051363;28;20058;-80
2021/05/26 08:38:43;;;;;;;;;;;;;;;8.79;100.00;98791.38;5052533;28;20314;-83
2021/05/26 08:41:11;;;;;;;;;;;;;;;8.86;100.00;98796.09;5053118;28;19931;-84
2021/05/26 08:43:39;;;;;;;;;;;;;;;8.99;100.00;98797.88;5082829;28;19929;-86
2021/05/26 08:46:06;;;;;;;;;;;;;;;9.03;100.00;98797.81;5066809;28;19932;-78
2021/05/26 08:48:34;;;;;;;;;;;;;;;9.06;100.00;98794.97;5051766;28;19931;-79
2021/05/26 08:51:06;;;;;;;;;;;;;;;8.96;100.00;98797.94;5052649;28;19928;-87
2021/05/26 08:53:34;;;;;;;;;;;;;;;9.05;100.00;98804.56;5067857;28;20369;-88
2021/05/26 08:56:03;;;;;;;;;;;;;;;9.07;100.00;98790.97;5043324;28;19932;-80
2021/05/26 08:58:35;;;;;;;;;;;;;;;9.33;100.00;98800.56;5055722;28;19935;-83
2021/05/26 09:01:02;;;;;;;;;;;;;;;9.61;100.00;98793.75;5069996;28;20038;-82
2021/05/26 09:03:30;;;;;;;;;;;;;;;9.81;100.00;98789.03;5054628;28;19929;-81
2021/05/26 09:05:58;;;;;;;;;;;;;;;10.00;100.00;98785.47;5053314;28;19925;-82
2021/05/26 09:08:26;;;;;;;;;;;;;;;10.36;100.00;98783.66;5055472;28;20384;-80
2021/05/26 09:10:57;;;;;;;;;;;;;;;10.45;100.00;98783.88;5055710;28;19932;-81
2021/05/26 09:13:28;;;;;;;;;;;;;;;10.25;100.00;98781.03;5055614;28;19925;-81
2021/05/26 09:15:56;;;;;;;;;;;;;;;10.25;100.00;98780.28;5054185;28;19932;-81
2021/05/26 09:18:23;;;;;;;;;;;;;;;10.16;100.00;98777.25;5055499;28;19932;-80
2021/05/26 09:20:50;;;;;;;;;;;;;;;10.23;100.00;98782.69;5055083;28;19925;-79
2021/05/26 09:23:25;;;;;;;;;;;;;;;10.21;100.00;98780.34;5054953;28;19925;-80
2021/05/26 09:25:55;;;;;;;;;;;;;;;10.48;100.00;98783.03;5053809;28;20019;-80
2021/05/26 09:28:22;;;;;;;;;;;;;;;10.63;100.00;98784.31;5073174;28;19932;-81
2021/05/26 09:30:51;;;;;;;;;;;;;;;9.99;100.00;98781.13;5055287;28;19929;-81
2021/05/26 09:33:29;;;;;;;;;;;;;;;10.03;100.00;98776.25;5054855;28;20308;-81
2021/05/26 09:36:15;;;;;;;;;;;;;;;10.33;100.00;98787.31;5052834;28;20027;-81
2021/05/26 09:38:44;;;;;;;;;;;;;;;10.34;100.00;98788.88;5053830;28;19932;-81
2021/05/26 09:41:12;;;;;;;;;;;;;;;10.14;100.00;98790.84;5053827;28;19925;-81
2021/05/26 09:43:43;;;;;;;;;;;;;;;9.94;100.00;98789.97;5052049;28;19933;-81
2021/05/26 09:46:21;;;;;;;;;;;;;;;9.96;100.00;98791.16;5053658;28;19931;-81
2021/05/26 09:49:04;;;;;;;;;;;;;;;9.97;100.00;98791.91;5052311;28;20023;-81
2021/05/26 09:51:32;;;;;;;;;;;;;;;9.59;100.00;98791.38;5053566;28;19932;-81
2021/05/26 09:54:09;;;;;;;;;;;;;;;9.60;100.00;98787.41;5053727;28;19935;-81
2021/05/26 09:56:36;;;;;;;;;;;;;;;9.59;100.00;98782.25;5053439;28;19929;-81
2021/05/26 09:59:04;;;;;;;;;;;;;;;9.78;100.00;98779.50;5052876;28;20428;-81
2021/05/26 10:01:32;;;;;;;;;;;;;;;9.89;100.00;98773.75;5053231;28;19925;-81
2021/05/26 10:03:59;;;;;;;;;;;;;;;9.93;100.00;98780.84;5068783;28;19929;-81
2021/05/26 10:06:28;;;;;;;;;;;;;;;10.07;100.00;98796.56;5051857;28;19924;-81
2021/05/26 10:09:20;;;;;;;;;;;;;;;10.13;100.00;98792.84;5085452;28;20399;-81
2021/05/26 10:12:15;;;;;;;;;;;;;;;9.97;100.00;98786.34;5052815;28;20308;-81
2021/05/26 10:14:44;;;;;;;;;;;;;;;9.97;100.00;98791.91;5068397;28;19947;-81
2021/05/26 10:17:19;;;;;;;;;;;;;;;10.00;100.00;98791.06;5051511;28;19925;-81
2021/05/26 10:19:48;;;;;;;;;;;;;;;9.81;100.00;98786.25;5051915;28;19959;-81
2021/05/26 10:22:15;;;;;;;;;;;;;;;9.81;100.00;98789.81;5052930;28;19931;-81
2021/05/26 10:24:44;;;;;;;;;;;;;;;9.96;100.00;98799.53;5052837;28;19924;-81
2021/05/26 10:27:30;;;;;;;;;;;;;;;9.89;100.00;98796.06;5051361;28;19925;-81
2021/05/26 10:29:57;;;;;;;;;;;;;;;9.87;100.00;98798.50;5052683;28;19970;-81
2021/05/26 10:32:27;;;;;;;;;;;;;;;9.78;100.00;98806.63;5052746;28;20384;-81
2021/05/26 10:34:54;;;;;;;;;;;;;;;10.01;100.00;98804.59;5052885;28;19932;-82
2021/05/26 10:37:25;;;;;;;;;;;;;;;9.83;100.00;98809.69;5038967;28;19955;-81
2021/05/26 10:39:52;;;;;;;;;;;;;;;9.83;100.00;98818.06;5068255;28;20404;-81
2021/05/26 10:42:26;;;;;;;;;;;;;;;9.76;100.00;98798.66;5052183;28;19924;-81
2021/05/26 10:45:04;;;;;;;;;;;;;;;9.74;100.00;98805.91;5034894;28;20335;-81
2021/05/26 10:47:38;;;;;;;;;;;;;;;9.81;100.00;98814.94;5031315;28;19929;-81
2021/05/26 10:50:23;;;;;;;;;;;;;;;9.90;100.00;98804.00;5045516;28;20034;-81
2021/05/26 10:52:55;;;;;;;;;;;;;;;9.98;100.00;98799.09;5040101;28;19929;-82
2021/05/26 10:55:36;;;;;;;;;;;;;;;9.97;100.00;98814.25;5050988;28;19935;-82
2021/05/26 10:58:09;;;;;;;;;;;;;;;9.87;100.00;98798.50;5052430;28;19929;-81
2021/05/26 11:00:37;;;;;;;;;;;;;;;9.79;100.00;98813.75;5051018;28;20384;-81
2021/05/26 11:03:23;;;;;;;;;;;;;;;9.72;100.00;98813.91;5052331;28;19959;-81
2021/05/26 11:05:51;;;;;;;;;;;;;;;9.69;100.00;98806.38;5052281;28;19924;-81
2021/05/26 11:08:44;;;;;;;;;;;;;;;9.84;100.00;98835.63;5068027;28;19924;-81
2021/05/26 11:11:24;;;;;;;;;;;;;;;9.93;100.00;98838.66;5052228;28;19975;-81
2021/05/26 11:14:01;;;;;;;;;;;;;;;10.35;100.00;98835.13;5052346;28;19925;-81
2021/05/26 11:16:37;;;;;;;;;;;;;;;10.43;100.00;98825.41;5051207;28;19925;-81
2021/05/26 11:19:13;;;;;;;;;;;;;;;10.40;100.00;98838.22;5084471;28;19974;-81
2021/05/26 11:21:41;;;;;;;;;;;;;;;10.30;100.00;98832.84;5052396;28;19929;-81
2021/05/26 11:24:08;;;;;;;;;;;;;;;10.33;100.00;98837.56;5051008;28;20384;-81
2021/05/26 11:26:37;;;;;;;;;;;;;;;10.28;100.00;98846.44;5052019;28;20396;-82
2021/05/26 11:29:04;;;;;;;;;;;;;;;10.17;100.00;98854.22;5053091;28;19932;-82
2021/05/26 11:31:32;;;;;;;;;;;;;;;10.11;100.00;98844.75;5054841;28;20066;-82
2021/05/26 11:33:59;;;;;;;;;;;;;;;9.99;100.00;98846.13;5071630;28;19925;-81
2021/05/26 11:36:39;;;;;;;;;;;;;;;10.08;100.00;98849.19;5056167;28;19935;-82
2021/05/26 11:39:35;;;;;;;;;;;;;;;10.10;100.00;98845.97;5042432;28;19964;-81
2021/05/26 11:42:08;;;;;;;;;;;;;;;10.30;100.00;98849.59;5054675;28;20376;-82
2021/05/26 11:44:40;;;;;;;;;;;;;;;10.54;100.00;98853.94;5054720;28;19925;-82
2021/05/26 11:47:07;;;;;;;;;;;;;;;10.54;100.00;98851.91;5055782;28;19925;-82
2021/05/26 11:49:36;;;;;;;;;;;;;;;10.43;100.00;98853.34;5054650;28;20384;-81
2021/05/26 11:52:04;;;;;;;;;;;;;;;10.36;100.00;98847.91;5054592;28;19951;-82
2021/05/26 11:54:31;;;;;;;;;;;;;;;10.51;100.00;98860.38;5055475;28;19925;-82
2021/05/26 11:56:59;;;;;;;;;;;;;;;10.57;100.00;98853.06;5056138;28;20029;-82
2021/05/26 11:59:27;;;;;;;;;;;;;;;10.51;100.00;98866.72;5073835;28;20386;-82
2021/05/26 12:01:55;;;;;;;;;;;;;;;10.45;100.00;98854.47;5054489;28;19928;-82
2021/05/26 12:04:22;;;;;;;;;;;;;;;10.41;100.00;98864.94;5054161;28;19929;-82
2021/05/26 12:06:50;;;;;;;;;;;;;;;10.25;100.00;98873.19;5070699;28;19929;-82
2021/05/26 12:09:23;;;;;;;;;;;;;;;10.28;100.00;98874.38;5054996;28;20016;-82
2021/05/26 12:11:51;;;;;;;;;;;;;;;10.34;100.00;98883.81;5054171;28;19981;-82
2021/05/26 12:14:28;;;;;;;;;;;;;;;10.27;100.00;98881.16;5070664;28;20335;-82
2021/05/26 12:16:55;;;;;;;;;;;;;;;10.21;100.00;98888.44;5054113;28;19925;-82
2021/05/26 12:19:29;;;;;;;;;;;;;;;10.13;100.00;98887.00;5070722;28;20273;-82
2021/05/26 12:22:18;;;;;;;;;;;;;;;10.16;100.00;98877.75;5055201;28;19932;-82
2021/05/26 12:24:53;;;;;;;;;;;;;;;10.18;100.00;98890.06;5070575;28;19947;-82
2021/05/26 12:27:32;;;;;;;;;;;;;;;10.28;100.00;98893.91;5071369;28;20410;-82
2021/05/26 12:30:19;;;;;;;;;;;;;;;10.32;100.00;98886.25;5053804;28;19924;-82
2021/05/26 12:32:50;;;;;;;;;;;;;;;10.44;100.00;98889.22;5070293;28;20370;-82
2021/05/26 12:35:21;;;;;;;;;;;;;;;10.54;100.00;98887.47;5087221;28;19924;-82
2021/05/26 12:37:50;;;;;;;;;;;;;;;10.58;100.00;98894.56;5053621;28;20380;-82
2021/05/26 12:40:26;;;;;;;;;;;;;;;10.75;100.00;98895.44;5053252;28;19925;-82
2021/05/26 12:42:54;;;;;;;;;;;;;;;10.79;100.00;98898.94;5054744;28;20015;-82
2021/05/26 12:45:26;;;;;;;;;;;;;;;10.77;100.00;98906.94;5054593;28;19925;-82
2021/05/26 12:47:54;;;;;;;;;;;;;;;11.09;100.00;98887.53;5053569;28;19925;-82
2021/05/26 12:50:23;;;;;;;;;;;;;;;11.03;100.00;98891.28;5053524;28;20058;-82
2021/05/26 12:52:51;;;;;;;;;;;;;;;11.01;100.00;98888.91;5054457;28;19935;-82
2021/05/26 12:55:19;;;;;;;;;;;;;;;10.63;100.00;98890.47;5054656;28;19970;-82
2021/05/26 12:57:46;;;;;;;;;;;;;;;10.54;100.00;98893.03;5054535;28;19932;-82
2021/05/26 13:00:14;;;;;;;;;;;;;;;10.81;100.00;98899.31;5086800;28;19925;-82
2021/05/26 13:02:42;;;;;;;;;;;;;;;10.94;100.00;98900.22;5051145;28;20012;-82